Time;durP1;ratioP1;P1;durP2;ratioP2;P2;SDS_P1;SDS_P2;PMS_P1;PMS_P2;Temp;Humidity;BMP_temperature;BMP_pressure;BME280_temperature;BME280_humidity;BME280_pressure;Samples;Min_cycle;Max_cycle;Signal;HPM_P1;HPM_P2
2023/12/06 00:00:48;;;;;;;;;;;;;;;1.15;100.00;100307.81;4841696;29;19916;-94
2023/12/06 00:03:14;;;;;;;;;;;;;;;1.11;100.00;100306.34;4849214;29;19924;-94
2023/12/06 00:05:42;;;;;;;;;;;;;;;1.00;100.00;100314.75;4849816;29;19923;-94
2023/12/06 00:08:08;;;;;;;;;;;;;;;0.93;100.00;100313.38;4855080;29;19916;-94
2023/12/06 00:10:36;;;;;;;;;;;;;;;0.88;100.00;100298.03;4863815;29;19948;-95
2023/12/06 00:13:04;;;;;;;;;;;;;;;0.83;100.00;100303.50;4836645;29;19951;-93
2023/12/06 00:15:32;;;;;;;;;;;;;;;0.77;100.00;100300.38;4860572;29;19975;-93
2023/12/06 00:17:58;;;;;;;;;;;;;;;0.72;100.00;100290.22;4843840;29;19988;-93
2023/12/06 00:20:31;;;;;;;;;;;;;;;0.77;100.00;100301.22;4852941;29;20370;-94
2023/12/06 00:22:57;;;;;;;;;;;;;;;0.84;100.00;100296.53;4838130;29;19920;-94
2023/12/06 00:25:25;;;;;;;;;;;;;;;0.91;100.00;100297.03;4858898;29;20277;-94
2023/12/06 00:27:55;;;;;;;;;;;;;;;0.95;100.00;100291.59;4842972;29;19964;-94
2023/12/06 00:30:27;;;;;;;;;;;;;;;0.96;100.00;100277.63;4835408;29;20309;-94
2023/12/06 00:32:52;;;;;;;;;;;;;;;1.01;100.00;100272.16;4852497;29;19960;-93
2023/12/06 00:35:18;;;;;;;;;;;;;;;1.07;100.00;100278.78;4824300;29;19916;-94
2023/12/06 00:37:44;;;;;;;;;;;;;;;1.08;100.00;100272.66;4838663;29;20309;-93
2023/12/06 00:40:09;;;;;;;;;;;;;;;1.12;100.00;100268.94;4821855;29;19988;-94
2023/12/06 00:42:35;;;;;;;;;;;;;;;1.19;100.00;100270.28;4851899;29;20004;-94
2023/12/06 00:45:01;;;;;;;;;;;;;;;1.26;100.00;100262.94;4831903;29;20416;-94
2023/12/06 00:47:26;;;;;;;;;;;;;;;1.31;100.00;100275.69;4840459;29;19916;-93
2023/12/06 00:49:52;;;;;;;;;;;;;;;1.32;100.00;100270.41;4855975;29;19925;-94
2023/12/06 00:52:20;;;;;;;;;;;;;;;1.38;100.00;100264.03;4833731;29;19917;-94
2023/12/06 00:54:47;;;;;;;;;;;;;;;1.42;100.00;100262.09;4849896;29;20256;-94
2023/12/06 00:57:13;;;;;;;;;;;;;;;1.42;100.00;100262.09;4850089;29;20478;-93
2023/12/06 00:59:39;;;;;;;;;;;;;;;1.41;100.00;100260.38;4839088;29;20004;-94
2023/12/06 01:02:05;;;;;;;;;;;;;;;1.39;100.00;100249.22;4850320;29;19924;-94
2023/12/06 01:04:31;;;;;;;;;;;;;;;1.37;100.00;100249.31;4821328;29;19920;-94
2023/12/06 01:06:56;;;;;;;;;;;;;;;1.40;100.00;100248.31;4848475;29;19927;-94
2023/12/06 01:09:40;;;;;;;;;;;;;;;1.42;100.00;100242.06;4838722;29;20008;-94
2023/12/06 01:12:25;;;;;;;;;;;;;;;1.46;100.00;100232.31;4805080;29;20603;-95
2023/12/06 01:14:54;;;;;;;;;;;;;;;1.46;100.00;100234.91;4819948;29;20471;-94
2023/12/06 01:17:19;;;;;;;;;;;;;;;1.46;100.00;100227.09;4819416;29;19916;-94
2023/12/06 01:19:52;;;;;;;;;;;;;;;1.44;100.00;100223.75;4812307;29;19949;-94
2023/12/06 01:22:18;;;;;;;;;;;;;;;1.44;100.00;100226.34;4850237;29;19924;-94
2023/12/06 01:24:44;;;;;;;;;;;;;;;1.46;100.00;100225.34;4836298;29;20276;-94
2023/12/06 01:27:12;;;;;;;;;;;;;;;1.48;100.00;100212.22;4848924;29;19920;-95
2023/12/06 01:29:38;;;;;;;;;;;;;;;1.52;100.00;100205.06;4837940;29;19944;-94
2023/12/06 01:32:04;;;;;;;;;;;;;;;1.54;100.00;100203.22;4824100;29;19916;-94
2023/12/06 01:34:30;;;;;;;;;;;;;;;1.53;100.00;100204.16;4824532;29;19920;-94
2023/12/06 01:36:55;;;;;;;;;;;;;;;1.53;100.00;100197.16;4834652;29;19981;-94
2023/12/06 01:39:21;;;;;;;;;;;;;;;1.53;100.00;100188.50;4838024;29;19920;-94
2023/12/06 01:41:48;;;;;;;;;;;;;;;1.49;100.00;100187.84;4823639;29;20012;-94
2023/12/06 01:44:27;;;;;;;;;;;;;;;1.48;100.00;100179.19;4848846;29;19920;-94
2023/12/06 01:46:53;;;;;;;;;;;;;;;1.50;100.00;100181.69;4824733;29;20375;-94
2023/12/06 01:49:19;;;;;;;;;;;;;;;1.49;100.00;100177.44;4818879;29;19921;-94
2023/12/06 01:51:44;;;;;;;;;;;;;;;1.45;100.00;100173.34;4834565;29;19956;-95
2023/12/06 01:54:11;;;;;;;;;;;;;;;1.45;100.00;100176.78;4839890;29;20016;-94
2023/12/06 01:56:47;;;;;;;;;;;;;;;;;;;;;
2023/12/06 01:59:22;;;;;;;;;;;;;;;1.50;100.00;100181.69;4840678;29;19924;-95
2023/12/06 02:01:48;;;;;;;;;;;;;;;1.53;100.00;100186.72;4822578;29;19916;-94
2023/12/06 02:04:16;;;;;;;;;;;;;;;1.57;100.00;100187.38;4824629;29;19945;-94
2023/12/06 02:06:49;;;;;;;;;;;;;;;1.59;100.00;100183.75;4828482;29;19916;-94
2023/12/06 02:09:15;;;;;;;;;;;;;;;1.61;100.00;100178.44;4840477;29;19927;-94
2023/12/06 02:12:11;;;;;;;;;;;;;;;;;;;;;
2023/12/06 02:14:42;;;;;;;;;;;;;;;1.63;100.00;100173.13;4840848;29;19917;-94
2023/12/06 02:17:09;;;;;;;;;;;;;;;1.67;100.00;100177.25;4818577;29;19916;-94
2023/12/06 02:19:47;;;;;;;;;;;;;;;1.67;100.00;100172.03;4826927;29;20301;-94
2023/12/06 02:22:33;;;;;;;;;;;;;;;1.69;100.00;100164.97;4845995;29;20016;-94
2023/12/06 02:25:01;;;;;;;;;;;;;;;1.71;100.00;100160.50;4854931;29;20002;-94
2023/12/06 02:28:03;;;;;;;;;;;;;;;;;;;;;
2023/12/06 02:31:04;;;;;;;;;;;;;;;1.79;100.00;100155.66;4857992;29;19919;-94
2023/12/06 02:34:27;;;;;;;;;;;;;;;1.82;100.00;100158.06;4861437;29;19915;-94
2023/12/06 02:37:00;;;;;;;;;;;;;;;1.84;100.00;100153.59;4857435;29;20462;-94
2023/12/06 02:39:31;;;;;;;;;;;;;;;1.89;100.00;100153.31;4846056;29;19919;-94
2023/12/06 02:42:02;;;;;;;;;;;;;;;1.93;100.00;100154.78;4846209;29;19915;-93
2023/12/06 02:44:27;;;;;;;;;;;;;;;1.95;100.00;100150.34;4843562;29;19923;-94
2023/12/06 02:46:54;;;;;;;;;;;;;;;1.99;100.00;100156.19;4831670;29;19916;-94
2023/12/06 02:49:19;;;;;;;;;;;;;;;2.00;100.00;100152.66;4879743;29;19919;-94
2023/12/06 02:51:45;;;;;;;;;;;;;;;2.03;100.00;100154.22;4865120;29;20354;-93
2023/12/06 02:54:11;;;;;;;;;;;;;;;2.08;100.00;100154.78;4855461;29;19990;-94
2023/12/06 02:56:36;;;;;;;;;;;;;;;2.13;100.00;100154.47;4879418;29;19922;-93
2023/12/06 02:59:02;;;;;;;;;;;;;;;2.17;100.00;100148.97;4837796;29;20331;-93
2023/12/06 03:01:27;;;;;;;;;;;;;;;2.15;100.00;100143.00;4855783;29;19915;-93
2023/12/06 03:04:39;;;;;;;;;;;;;;;2.13;100.00;100133.63;4864241;29;19963;-93
2023/12/06 03:07:32;;;;;;;;;;;;;;;2.13;100.00;100128.41;4881244;29;19922;-93
2023/12/06 03:10:05;;;;;;;;;;;;;;;2.12;100.00;100124.13;4850521;29;20007;-94
2023/12/06 03:12:33;;;;;;;;;;;;;;;2.14;100.00;100117.03;4877342;29;20010;-93
2023/12/06 03:15:02;;;;;;;;;;;;;;;2.16;100.00;100120.38;4861741;29;20018;-93
2023/12/06 03:17:27;;;;;;;;;;;;;;;2.19;100.00;100110.59;4847002;29;20031;-93
2023/12/06 03:19:53;;;;;;;;;;;;;;;2.21;100.00;100113.13;4875731;29;19919;-93
2023/12/06 03:22:19;;;;;;;;;;;;;;;2.18;100.00;100108.91;4877856;29;19927;-93
2023/12/06 03:24:44;;;;;;;;;;;;;;;2.20;100.00;100116.63;4876375;29;19922;-93
2023/12/06 03:27:33;;;;;;;;;;;;;;;;;;;;;
2023/12/06 03:30:32;;;;;;;;;;;;;;;2.20;100.00;100109.66;4863688;29;19923;-93
2023/12/06 03:32:58;;;;;;;;;;;;;;;2.15;100.00;100106.50;4834588;29;20374;-94
2023/12/06 03:35:24;;;;;;;;;;;;;;;2.17;100.00;100104.66;4845767;29;19982;-94
2023/12/06 03:37:49;;;;;;;;;;;;;;;2.22;100.00;100102.59;4848040;29;19959;-94
2023/12/06 03:40:15;;;;;;;;;;;;;;;2.26;100.00;100082.38;4854834;29;20362;-94
2023/12/06 03:42:40;;;;;;;;;;;;;;;2.30;100.00;100078.63;4880680;29;19924;-94
2023/12/06 03:45:06;;;;;;;;;;;;;;;2.35;100.00;100076.56;4840834;29;19977;-94
2023/12/06 03:47:32;;;;;;;;;;;;;;;2.38;100.00;100074.66;4831413;29;20387;-94
2023/12/06 03:49:57;;;;;;;;;;;;;;;2.41;100.00;100074.47;4863612;29;19920;-94
2023/12/06 03:52:23;;;;;;;;;;;;;;;2.45;100.00;100071.53;4864421;29;19985;-93
2023/12/06 03:54:48;;;;;;;;;;;;;;;2.47;100.00;100077.50;4848089;29;19915;-94
2023/12/06 03:57:14;;;;;;;;;;;;;;;2.56;100.00;100060.44;4856859;29;19926;-94
2023/12/06 03:59:40;;;;;;;;;;;;;;;2.68;100.00;100058.75;4879166;29;20343;-94
2023/12/06 04:02:06;;;;;;;;;;;;;;;2.80;100.00;100056.28;4880556;29;19924;-94
2023/12/06 04:04:31;;;;;;;;;;;;;;;2.84;100.00;100053.34;4880573;29;19923;-94
2023/12/06 04:06:57;;;;;;;;;;;;;;;2.87;100.00;100054.91;4866089;29;20006;-95
2023/12/06 04:09:22;;;;;;;;;;;;;;;2.89;100.00;100046.97;4849144;29;19922;-94
2023/12/06 04:11:48;;;;;;;;;;;;;;;2.92;100.00;100050.22;4860697;29;19994;-94
2023/12/06 04:14:13;;;;;;;;;;;;;;;2.94;100.00;100050.97;4876394;29;19943;-94
2023/12/06 04:16:39;;;;;;;;;;;;;;;2.99;100.00;100045.41;4833480;29;19984;-94
2023/12/06 04:19:05;;;;;;;;;;;;;;;2.98;100.00;100043.72;4878586;29;19927;-94
2023/12/06 04:21:31;;;;;;;;;;;;;;;3.00;100.00;100043.63;4849203;29;19919;-94
2023/12/06 04:23:56;;;;;;;;;;;;;;;2.99;100.00;100045.41;4857939;29;19920;-94
2023/12/06 04:26:22;;;;;;;;;;;;;;;2.98;100.00;100041.97;4847021;29;19920;-94
2023/12/06 04:28:47;;;;;;;;;;;;;;;2.99;100.00;100045.41;4862035;29;20290;-94
2023/12/06 04:31:13;;;;;;;;;;;;;;;3.00;100.00;100039.25;4861312;29;20389;-95
2023/12/06 04:33:40;;;;;;;;;;;;;;;3.03;100.00;100027.75;4876434;29;19964;-94
2023/12/06 04:36:06;;;;;;;;;;;;;;;3.02;100.00;100026.94;4849054;29;19915;-95
2023/12/06 04:38:31;;;;;;;;;;;;;;;3.04;100.00;100030.25;4852405;29;19920;-94
2023/12/06 04:40:57;;;;;;;;;;;;;;;3.05;100.00;100018.03;4877500;29;20351;-94
2023/12/06 04:43:23;;;;;;;;;;;;;;;3.07;100.00;100016.16;4843310;29;19923;-94
2023/12/06 04:45:48;;;;;;;;;;;;;;;3.08;100.00;100008.22;4862516;29;19919;-94
2023/12/06 04:48:14;;;;;;;;;;;;;;;3.13;100.00;99999.22;4861623;29;19927;-94
2023/12/06 04:50:39;;;;;;;;;;;;;;;3.19;100.00;100004.03;4849752;29;19919;-94
2023/12/06 04:53:05;;;;;;;;;;;;;;;3.21;100.00;99997.75;4860161;29;19923;-94
2023/12/06 04:55:31;;;;;;;;;;;;;;;3.28;100.00;99999.94;4854924;29;19919;-95
2023/12/06 04:57:56;;;;;;;;;;;;;;;3.37;100.00;99993.22;4862420;29;20026;-94
2023/12/06 05:00:22;;;;;;;;;;;;;;;3.44;100.00;99992.69;4847612;29;19929;-94
2023/12/06 05:02:48;;;;;;;;;;;;;;;3.58;100.00;99996.91;4879464;29;19919;-95
2023/12/06 05:05:13;;;;;;;;;;;;;;;3.72;100.00;99988.09;4862073;29;20006;-93
2023/12/06 05:07:39;;;;;;;;;;;;;;;3.86;100.00;99986.25;4865896;29;19916;-93
2023/12/06 05:10:05;;;;;;;;;;;;;;;4.00;100.00;99976.56;4847172;29;19926;-94
2023/12/06 05:12:30;;;;;;;;;;;;;;;4.10;100.00;99964.47;4859477;29;19976;-95
2023/12/06 05:14:56;;;;;;;;;;;;;;;4.19;100.00;99962.94;4862677;29;19915;-95
2023/12/06 05:17:21;;;;;;;;;;;;;;;4.27;100.00;99965.00;4862861;29;19970;-95
2023/12/06 05:19:47;;;;;;;;;;;;;;;4.34;100.00;99963.56;4847528;29;19915;-94
2023/12/06 05:22:12;;;;;;;;;;;;;;;4.41;100.00;99948.25;4860728;29;20014;-95
2023/12/06 05:24:38;;;;;;;;;;;;;;;4.48;100.00;99941.59;4858352;29;19916;-94
2023/12/06 05:27:04;;;;;;;;;;;;;;;4.56;100.00;99941.84;4852340;29;19967;-93
2023/12/06 05:29:31;;;;;;;;;;;;;;;4.62;100.00;99926.63;4870570;29;19978;-94
2023/12/06 05:31:57;;;;;;;;;;;;;;;4.68;100.00;99931.38;4875513;29;19916;-93
2023/12/06 05:34:23;;;;;;;;;;;;;;;4.75;100.00;99942.19;4846333;29;19930;-94
2023/12/06 05:36:48;;;;;;;;;;;;;;;4.80;100.00;99940.06;4862667;29;19919;-93
2023/12/06 05:39:14;;;;;;;;;;;;;;;4.85;100.00;99935.31;4830134;29;19935;-93
2023/12/06 05:41:40;;;;;;;;;;;;;;;4.91;100.00;99939.22;4863324;29;19926;-95
2023/12/06 05:44:05;;;;;;;;;;;;;;;4.96;100.00;99929.22;4861404;29;19919;-93
2023/12/06 05:46:31;;;;;;;;;;;;;;;5.04;100.00;99929.47;4847098;29;19923;-91
2023/12/06 05:48:57;;;;;;;;;;;;;;;5.13;100.00;99927.88;4861760;29;20226;-94
2023/12/06 05:51:23;;;;;;;;;;;;;;;5.22;100.00;99923.72;4859073;29;20030;-92
2023/12/06 05:53:49;;;;;;;;;;;;;;;5.31;100.00;99927.38;4858361;29;19920;-94
2023/12/06 05:56:14;;;;;;;;;;;;;;;5.38;100.00;99925.94;4831582;29;19920;-94
2023/12/06 05:58:40;;;;;;;;;;;;;;;5.49;100.00;99921.63;4867692;29;19920;-94
2023/12/06 06:01:05;;;;;;;;;;;;;;;5.52;100.00;99913.50;4864681;29;20426;-93
2023/12/06 06:03:31;;;;;;;;;;;;;;;5.59;100.00;99915.50;4866348;29;20376;-92
2023/12/06 06:05:56;;;;;;;;;;;;;;;5.67;100.00;99914.06;4855750;29;19977;-94
2023/12/06 06:08:22;;;;;;;;;;;;;;;5.68;100.00;99916.56;4858574;29;19924;-94
2023/12/06 06:10:47;;;;;;;;;;;;;;;5.72;100.00;99914.50;4861494;29;19920;-94
2023/12/06 06:13:13;;;;;;;;;;;;;;;5.75;100.00;99913.44;4860941;29;19924;-95
2023/12/06 06:15:38;;;;;;;;;;;;;;;5.77;100.00;99906.25;4861135;29;19998;-94
2023/12/06 06:18:05;;;;;;;;;;;;;;;5.80;100.00;99892.88;4830692;29;19920;-96
2023/12/06 06:20:32;;;;;;;;;;;;;;;5.84;100.00;99891.69;4845381;29;19920;-90
2023/12/06 06:22:57;;;;;;;;;;;;;;;5.91;100.00;99889.38;4858486;29;20367;-93
2023/12/06 06:25:23;;;;;;;;;;;;;;;5.93;100.00;99887.44;4867652;29;19924;-92
2023/12/06 06:27:48;;;;;;;;;;;;;;;5.96;100.00;99887.19;4852770;29;20375;-94
2023/12/06 06:30:14;;;;;;;;;;;;;;;5.98;100.00;99887.06;4864085;29;19920;-94
2023/12/06 06:32:40;;;;;;;;;;;;;;;6.01;100.00;99879.78;4872927;29;19931;-95
2023/12/06 06:35:07;;;;;;;;;;;;;;;6.03;100.00;99863.91;4866741;29;19916;-91
2023/12/06 06:37:33;;;;;;;;;;;;;;;6.07;100.00;99870.56;4865780;29;19923;-94
2023/12/06 06:39:59;;;;;;;;;;;;;;;6.08;100.00;99865.19;4851046;29;20530;-94
2023/12/06 06:42:24;;;;;;;;;;;;;;;6.08;100.00;99859.97;4848851;29;19933;-92
2023/12/06 06:44:51;;;;;;;;;;;;;;;6.14;100.00;99857.78;4848955;29;20006;-92
2023/12/06 06:47:17;;;;;;;;;;;;;;;6.21;100.00;99864.19;4885075;29;19927;-94
2023/12/06 06:49:45;;;;;;;;;;;;;;;6.26;100.00;99854.09;4864878;29;19919;-92
2023/12/06 06:52:11;;;;;;;;;;;;;;;6.26;100.00;99864.59;4866930;29;19925;-93
2023/12/06 06:54:36;;;;;;;;;;;;;;;6.29;100.00;99859.09;4867502;29;19919;-93
2023/12/06 06:57:03;;;;;;;;;;;;;;;6.30;100.00;99860.78;4849856;29;19923;-93
2023/12/06 06:59:28;;;;;;;;;;;;;;;6.34;100.00;99856.06;4864793;29;19967;-91
2023/12/06 07:01:55;;;;;;;;;;;;;;;6.33;100.00;99851.81;4880350;29;19924;-91
2023/12/06 07:04:20;;;;;;;;;;;;;;;6.32;100.00;99852.78;4866154;29;19920;-93
2023/12/06 07:06:46;;;;;;;;;;;;;;;6.38;100.00;99851.41;4865694;29;19915;-91
2023/12/06 07:09:11;;;;;;;;;;;;;;;6.41;100.00;99857.22;4878115;29;19916;-94
2023/12/06 07:11:37;;;;;;;;;;;;;;;6.44;100.00;99864.84;4859769;29;20003;-91
2023/12/06 07:14:03;;;;;;;;;;;;;;;6.43;100.00;99857.91;4879922;29;19927;-92
2023/12/06 07:16:28;;;;;;;;;;;;;;;6.50;100.00;99860.03;4870035;29;20028;-93
2023/12/06 07:18:54;;;;;;;;;;;;;;;6.50;100.00;99860.84;4879411;29;20397;-93
2023/12/06 07:21:20;;;;;;;;;;;;;;;6.51;100.00;99853.81;4852567;29;19919;-92
2023/12/06 07:23:45;;;;;;;;;;;;;;;6.49;100.00;99863.59;4871707;29;19927;-93
2023/12/06 07:26:11;;;;;;;;;;;;;;;6.49;100.00;99856.56;4864075;29;19920;-94
2023/12/06 07:28:37;;;;;;;;;;;;;;;6.54;100.00;99854.38;4849321;29;19983;-94
2023/12/06 07:31:03;;;;;;;;;;;;;;;6.56;100.00;99855.06;4864522;29;19949;-93
2023/12/06 07:33:29;;;;;;;;;;;;;;;6.55;100.00;99856.03;4843488;29;19919;-95
2023/12/06 07:35:54;;;;;;;;;;;;;;;6.55;100.00;99848.16;4861266;29;19920;-92
2023/12/06 07:38:20;;;;;;;;;;;;;;;6.57;100.00;99843.63;4854705;29;20493;-94
2023/12/06 07:40:46;;;;;;;;;;;;;;;6.58;100.00;99840.00;4863444;29;20423;-93
2023/12/06 07:43:11;;;;;;;;;;;;;;;6.60;100.00;99839.03;4873345;29;19946;-96
2023/12/06 07:45:37;;;;;;;;;;;;;;;6.65;100.00;99835.06;4847959;29;19915;-94
2023/12/06 07:48:03;;;;;;;;;;;;;;;6.65;100.00;99831.59;4877484;29;19916;-92
2023/12/06 07:50:29;;;;;;;;;;;;;;;6.64;100.00;99825.50;4851448;29;20406;-91
2023/12/06 07:52:54;;;;;;;;;;;;;;;6.68;100.00;99821.66;4862614;29;19924;-93
2023/12/06 07:55:21;;;;;;;;;;;;;;;6.71;100.00;99817.94;4860952;29;20294;-95
2023/12/06 07:57:46;;;;;;;;;;;;;;;6.72;100.00;99816.94;4862606;29;19923;-91
2023/12/06 08:00:13;;;;;;;;;;;;;;;6.78;100.00;99813.81;4863073;29;19920;-92
2023/12/06 08:02:39;;;;;;;;;;;;;;;6.80;100.00;99827.63;4860486;29;19919;-92
2023/12/06 08:05:10;;;;;;;;;;;;;;;6.77;100.00;99819.19;4846422;29;19926;-93
2023/12/06 08:07:37;;;;;;;;;;;;;;;6.80;100.00;99813.69;4844871;29;20430;-94
2023/12/06 08:10:12;;;;;;;;;;;;;;;6.82;100.00;99809.09;4875145;29;20018;-94
2023/12/06 08:12:38;;;;;;;;;;;;;;;6.82;100.00;99794.19;4851042;29;19968;-91
2023/12/06 08:15:04;;;;;;;;;;;;;;;6.86;100.00;99804.41;4861946;29;19922;-93
2023/12/06 08:17:30;;;;;;;;;;;;;;;6.88;100.00;99802.50;4859557;29;20459;-93
2023/12/06 08:19:55;;;;;;;;;;;;;;;6.88;100.00;99799.88;4848729;29;19920;-92
2023/12/06 08:22:21;;;;;;;;;;;;;;;6.88;100.00;99800.69;4870926;29;20402;-92
2023/12/06 08:24:46;;;;;;;;;;;;;;;6.87;100.00;99800.81;4877674;29;19939;-93
2023/12/06 08:27:12;;;;;;;;;;;;;;;6.88;100.00;99805.13;4845724;29;19999;-93
2023/12/06 08:29:38;;;;;;;;;;;;;;;6.86;100.00;99807.88;4870754;29;20023;-94
2023/12/06 08:32:04;;;;;;;;;;;;;;;6.91;100.00;99804.84;4861492;29;19920;-92
2023/12/06 08:34:29;;;;;;;;;;;;;;;6.93;100.00;99800.25;4874908;29;19976;-95
2023/12/06 08:36:55;;;;;;;;;;;;;;;6.95;100.00;99799.19;4861480;29;19915;-94
2023/12/06 08:39:21;;;;;;;;;;;;;;;6.97;100.00;99795.56;4874982;29;19925;-92
2023/12/06 08:41:46;;;;;;;;;;;;;;;7.00;100.00;99793.50;4861905;29;19922;-91
2023/12/06 08:44:12;;;;;;;;;;;;;;;7.03;100.00;99797.66;4868658;29;20281;-92
2023/12/06 08:46:37;;;;;;;;;;;;;;;7.01;100.00;99792.53;4863626;29;20454;-93
2023/12/06 08:49:03;;;;;;;;;;;;;;;7.04;100.00;99792.25;4837687;29;20319;-94
2023/12/06 08:51:28;;;;;;;;;;;;;;;7.07;100.00;99796.44;4871159;29;19926;-93
2023/12/06 08:53:54;;;;;;;;;;;;;;;7.14;100.00;99788.81;4875095;29;19919;-93
2023/12/06 08:56:19;;;;;;;;;;;;;;;7.14;100.00;99784.38;4856466;29;19956;-95
2023/12/06 08:58:45;;;;;;;;;;;;;;;7.12;100.00;99780.25;4869044;29;19915;-93
2023/12/06 09:01:11;;;;;;;;;;;;;;;7.10;100.00;99785.63;4860604;29;20014;-93
2023/12/06 09:03:36;;;;;;;;;;;;;;;7.15;100.00;99774.72;4875255;29;19924;-92
2023/12/06 09:06:02;;;;;;;;;;;;;;;7.18;100.00;99769.19;4869692;29;19923;-95
2023/12/06 09:08:29;;;;;;;;;;;;;;;7.19;100.00;99770.81;4873548;29;19999;-93
2023/12/06 09:10:54;;;;;;;;;;;;;;;7.25;100.00;99746.59;4846155;29;19920;-93
2023/12/06 09:13:20;;;;;;;;;;;;;;;7.29;100.00;99728.78;4876465;29;19972;-95
2023/12/06 09:15:45;;;;;;;;;;;;;;;7.31;100.00;99732.91;4846931;29;19923;-93
2023/12/06 09:18:11;;;;;;;;;;;;;;;7.36;100.00;99711.44;4860329;29;20353;-92
2023/12/06 09:20:36;;;;;;;;;;;;;;;7.32;100.00;99710.09;4863572;29;20375;-93
2023/12/06 09:23:02;;;;;;;;;;;;;;;7.35;100.00;99714.22;4871892;29;19967;-92
2023/12/06 09:25:28;;;;;;;;;;;;;;;7.39;100.00;99702.47;4867098;29;20279;-94
2023/12/06 09:27:53;;;;;;;;;;;;;;;7.39;100.00;99697.22;4848689;29;19924;-93
2023/12/06 09:30:19;;;;;;;;;;;;;;;7.37;100.00;99691.25;4845805;29;19923;-95
2023/12/06 09:32:45;;;;;;;;;;;;;;;7.46;100.00;99695.66;4851966;29;19920;-94
2023/12/06 09:35:11;;;;;;;;;;;;;;;7.48;100.00;99679.72;4854794;29;19924;-92
2023/12/06 09:37:37;;;;;;;;;;;;;;;7.47;100.00;99680.72;4833305;29;19968;-93
2023/12/06 09:40:02;;;;;;;;;;;;;;;7.48;100.00;99680.56;4860326;29;19915;-96
2023/12/06 09:42:29;;;;;;;;;;;;;;;7.51;100.00;99677.66;4860291;29;19958;-92
2023/12/06 09:44:57;;;;;;;;;;;;;;;7.53;100.00;99673.06;4877824;29;19943;-93
2023/12/06 09:47:23;;;;;;;;;;;;;;;7.56;100.00;99661.44;4876706;29;19916;-92
2023/12/06 09:49:49;;;;;;;;;;;;;;;7.58;100.00;99680.53;4839920;29;19951;-93
2023/12/06 09:52:19;;;;;;;;;;;;;;;7.60;100.00;99668.06;4877895;29;19963;-93
2023/12/06 09:54:45;;;;;;;;;;;;;;;7.61;100.00;99677.63;4843928;29;19922;-96
2023/12/06 09:57:11;;;;;;;;;;;;;;;7.68;100.00;99668.19;4868213;29;19919;-93
2023/12/06 09:59:37;;;;;;;;;;;;;;;7.67;100.00;99668.31;4846123;29;19919;-92
2023/12/06 10:02:02;;;;;;;;;;;;;;;7.70;100.00;99665.41;4860901;29;19919;-92
2023/12/06 10:04:28;;;;;;;;;;;;;;;7.73;100.00;99670.38;4860976;29;19916;-93
2023/12/06 10:06:54;;;;;;;;;;;;;;;7.76;100.00;99675.34;4876850;29;19919;-92
2023/12/06 10:09:20;;;;;;;;;;;;;;;7.76;100.00;99653.47;4874219;29;20264;-94
2023/12/06 10:11:47;;;;;;;;;;;;;;;7.76;100.00;99661.34;4860665;29;19958;-94
2023/12/06 10:14:31;;;;;;;;;;;;;;;7.85;100.00;99657.03;4863430;29;19976;-95
2023/12/06 10:16:57;;;;;;;;;;;;;;;7.80;100.00;99657.47;4851631;29;19962;-93
2023/12/06 10:19:23;;;;;;;;;;;;;;;7.86;100.00;99642.88;4843516;29;19959;-94
2023/12/06 10:21:49;;;;;;;;;;;;;;;7.88;100.00;99638.31;4845641;29;19927;-93
2023/12/06 10:24:15;;;;;;;;;;;;;;;7.90;100.00;99642.44;4844077;29;19924;-95
2023/12/06 10:26:41;;;;;;;;;;;;;;;7.92;100.00;99640.50;4863733;29;19920;-94
2023/12/06 10:29:06;;;;;;;;;;;;;;;7.96;100.00;99656.00;4858305;29;20301;-94
2023/12/06 10:31:41;;;;;;;;;;;;;;;8.01;100.00;99646.69;4870715;29;19916;-91
2023/12/06 10:34:08;;;;;;;;;;;;;;;8.02;100.00;99651.00;4862628;29;19916;-95
2023/12/06 10:36:34;;;;;;;;;;;;;;;8.05;100.00;99648.06;4858852;29;19920;-95
2023/12/06 10:39:00;;;;;;;;;;;;;;;8.05;100.00;99644.59;4854941;29;19920;-95
2023/12/06 10:41:26;;;;;;;;;;;;;;;8.02;100.00;99632.56;4852240;29;19926;-94
2023/12/06 10:43:56;;;;;;;;;;;;;;;8.04;100.00;99637.69;4860694;29;20003;-93
2023/12/06 10:46:22;;;;;;;;;;;;;;;8.05;100.00;99629.63;4868573;29;20306;-93
2023/12/06 10:48:48;;;;;;;;;;;;;;;8.12;100.00;99614.06;4865931;29;19915;-93
2023/12/06 10:51:15;;;;;;;;;;;;;;;8.16;100.00;99627.75;4868050;29;20010;-95
2023/12/06 10:53:40;;;;;;;;;;;;;;;8.13;100.00;99623.63;4860906;29;19920;-93
2023/12/06 10:56:07;;;;;;;;;;;;;;;8.18;100.00;99616.13;4856397;29;19916;-92
2023/12/06 10:58:34;;;;;;;;;;;;;;;8.19;100.00;99609.03;4849010;29;19955;-94
2023/12/06 11:00:59;;;;;;;;;;;;;;;8.25;100.00;99603.16;4852414;29;19916;-92
2023/12/06 11:03:25;;;;;;;;;;;;;;;8.28;100.00;99589.69;4830563;29;19926;-93
2023/12/06 11:05:53;;;;;;;;;;;;;;;8.28;100.00;99589.69;4865470;29;19931;-96
2023/12/06 11:08:31;;;;;;;;;;;;;;;8.28;100.00;99591.53;4847924;29;19916;-94
2023/12/06 11:11:23;;;;;;;;;;;;;;;8.29;100.00;99557.16;4850405;29;20374;-95
2023/12/06 11:14:07;;;;;;;;;;;;;;;8.30;100.00;99571.13;4830899;29;19972;-93
2023/12/06 11:16:48;;;;;;;;;;;;;;;8.30;100.00;99563.22;4863138;29;19916;-92
2023/12/06 11:19:14;;;;;;;;;;;;;;;8.29;100.00;99572.94;4879572;29;19922;-94
2023/12/06 11:21:40;;;;;;;;;;;;;;;8.32;100.00;99561.28;4868639;29;19920;-94
2023/12/06 11:24:10;;;;;;;;;;;;;;;8.33;100.00;99562.91;4877388;29;19919;-95
2023/12/06 11:26:35;;;;;;;;;;;;;;;8.33;100.00;99555.00;4880373;29;19919;-94
2023/12/06 11:29:02;;;;;;;;;;;;;;;8.37;100.00;99564.28;4850360;29;19924;-96
2023/12/06 11:31:36;;;;;;;;;;;;;;;8.37;100.00;99552.91;4863560;29;19924;-93
2023/12/06 11:34:06;;;;;;;;;;;;;;;8.38;100.00;99539.59;4850690;29;19942;-94
2023/12/06 11:36:32;;;;;;;;;;;;;;;8.44;100.00;99554.78;4878355;29;19920;-93
2023/12/06 11:38:58;;;;;;;;;;;;;;;8.46;100.00;99533.56;4849757;29;19968;-93
2023/12/06 11:41:25;;;;;;;;;;;;;;;8.43;100.00;99518.91;4880138;29;19915;-96
2023/12/06 11:43:51;;;;;;;;;;;;;;;8.34;100.00;99538.25;4879783;29;19931;-92
2023/12/06 11:46:17;;;;;;;;;;;;;;;8.37;100.00;99511.63;4865611;29;19954;-95
2023/12/06 11:48:47;;;;;;;;;;;;;;;8.32;100.00;99548.94;4866079;29;19923;-96
2023/12/06 11:51:31;;;;;;;;;;;;;;;8.30;100.00;99552.69;4861542;29;20371;-94
2023/12/06 11:53:57;;;;;;;;;;;;;;;8.25;100.00;99550.50;4850770;29;19926;-95
2023/12/06 11:56:23;;;;;;;;;;;;;;;8.18;100.00;99549.47;4853338;29;19916;-95
2023/12/06 11:58:52;;;;;;;;;;;;;;;8.05;100.00;99524.38;4863715;29;19924;-93
2023/12/06 12:01:19;;;;;;;;;;;;;;;8.07;100.00;99525.00;4861220;29;19915;-92
2023/12/06 12:03:45;;;;;;;;;;;;;;;8.04;100.00;99506.09;4853047;29;20027;-93
2023/12/06 12:06:11;;;;;;;;;;;;;;;7.99;100.00;99511.81;4843908;29;19923;-95
2023/12/06 12:08:39;;;;;;;;;;;;;;;7.94;100.00;99522.78;4846480;29;19920;-92
2023/12/06 12:11:05;;;;;;;;;;;;;;;7.87;100.00;99507.75;4866385;29;20000;-93
2023/12/06 12:13:35;;;;;;;;;;;;;;;7.87;100.00;99526.97;4859245;29;19919;-93
2023/12/06 12:16:01;;;;;;;;;;;;;;;7.85;100.00;99507.06;4868329;29;19967;-95
2023/12/06 12:18:28;;;;;;;;;;;;;;;7.84;100.00;99489.59;4861635;29;20324;-96
2023/12/06 12:20:58;;;;;;;;;;;;;;;7.83;100.00;99494.06;4846059;29;19915;-92
2023/12/06 12:23:28;;;;;;;;;;;;;;;7.81;100.00;99488.94;4861073;29;19930;-92
2023/12/06 12:25:54;;;;;;;;;;;;;;;7.83;100.00;99473.00;4861513;29;19915;-92
2023/12/06 12:28:20;;;;;;;;;;;;;;;7.88;100.00;99476.03;4858192;29;19920;-94
2023/12/06 12:30:52;;;;;;;;;;;;;;;7.88;100.00;99486.56;4882676;29;20442;-94
2023/12/06 12:33:20;;;;;;;;;;;;;;;7.86;100.00;99471.88;4871015;29;19916;-95
2023/12/06 12:35:45;;;;;;;;;;;;;;;7.86;100.00;99464.81;4880595;29;20006;-92
2023/12/06 12:38:11;;;;;;;;;;;;;;;7.82;100.00;99453.75;4862570;29;20030;-93
2023/12/06 12:40:41;;;;;;;;;;;;;;;7.81;100.00;99457.38;4846463;29;19922;-92
2023/12/06 12:43:07;;;;;;;;;;;;;;;7.81;100.00;99448.66;4847152;29;19927;-92
2023/12/06 12:45:33;;;;;;;;;;;;;;;7.84;100.00;99443.09;4874500;29;19916;-92
2023/12/06 12:47:59;;;;;;;;;;;;;;;7.80;100.00;99442.56;4846799;29;20047;-94
2023/12/06 12:50:25;;;;;;;;;;;;;;;7.81;100.00;99441.59;4864397;29;19920;-93